Weather at Campo di Volo "Ali del Montello"

Public forecast

Using degrees Celsius for public forecast. Weather courtesy of forecast.io.

Closest aviation weather report (METAR) to Campo di Volo "Ali del Montello"

Closest report is Istrana Air Base, 5.6 nm (10.4 km) SW.

2024/07/24 06:55 (retrieved 22 minutes ago)

LIPS 240655Z 35004KT 9999 FEW060 25/20 Q1013 RMK BKN SCT150 VIS MIN 9999 WIND THR26 35004KT WIND THR08 34004KT BLU

Closest aviation forecast (TAF) to Campo di Volo "Ali del Montello"

Closest forecast is Treviso Antonio Canova Airport, 6.9 nm (12.8 km) S.

2024/07/24 06:00 (retrieved 1 hour ago)

TAF LIPH 240500Z 2406/2506 VRB05KT 9999 SCT050 TEMPO 2418/2505 TSRA BECMG 2420/2422 04010KT